createdAt,value
2018-02-21T06:20:17.426Z,95.57
2018-02-21T06:22:45.894Z,94.15
2018-02-21T06:25:14.153Z,99.18
2018-02-21T06:27:41.686Z,95.43
2018-02-21T06:30:09.218Z,89.47
2018-02-21T06:32:36.792Z,97.15
2018-02-21T06:35:08.138Z,91.25
2018-02-21T06:37:35.638Z,86.85
2018-02-21T06:40:03.232Z,90.25
2018-02-21T06:42:30.736Z,89.20
2018-02-21T06:44:59.414Z,87.50
2018-02-21T06:47:26.916Z,85.75
2018-02-21T06:49:54.415Z,79.00
2018-02-21T06:52:21.968Z,85.62
2018-02-21T06:54:49.471Z,81.72
2018-02-21T06:57:17.028Z,77.50
2018-02-21T06:59:44.518Z,77.93
2018-02-21T07:02:34.353Z,81.55
2018-02-21T07:05:01.852Z,83.03
2018-02-21T07:07:29.355Z,78.75
2018-02-21T07:09:56.862Z,76.72
2018-02-21T07:12:24.386Z,80.60
2018-02-21T07:14:51.938Z,74.95
2018-02-21T07:17:19.564Z,73.35
2018-02-21T07:19:47.077Z,73.55
2018-02-21T07:22:15.090Z,75.85
2018-02-21T07:24:42.624Z,75.62
2018-02-21T07:27:10.319Z,68.75
2018-02-21T07:29:37.836Z,71.35
2018-02-21T07:32:06.130Z,68.00
2018-02-21T07:34:33.699Z,73.55
2018-02-21T07:37:01.347Z,69.47
2018-02-21T07:39:28.860Z,71.03
2018-02-21T07:41:56.900Z,69.97
2018-02-21T07:44:24.390Z,70.07
2018-02-21T07:46:51.927Z,64.68
2018-02-21T07:49:20.464Z,65.95
2018-02-21T07:51:49.285Z,62.95
2018-02-21T07:54:16.831Z,68.55
2018-02-21T07:56:44.348Z,70.47
2018-02-21T07:59:11.914Z,68.70
2018-02-21T08:01:39.414Z,71.68
2018-02-21T08:04:06.955Z,66.28
2018-02-21T08:06:34.468Z,67.07
2018-02-21T08:09:03.532Z,68.07
2018-02-21T08:11:31.044Z,61.47
2018-02-21T08:13:58.578Z,65.20
2018-02-21T08:16:26.075Z,63.60
2018-02-21T08:18:54.340Z,63.53
2018-02-21T08:21:22.680Z,65.43
2018-02-21T08:23:50.996Z,60.03
2018-02-21T08:26:18.512Z,62.30
2018-02-21T08:28:46.033Z,62.27
2018-02-21T08:31:13.549Z,63.67
2018-02-21T08:33:41.103Z,66.13
2018-02-21T08:36:08.617Z,61.53
2018-02-21T08:38:36.987Z,60.13
2018-02-21T08:41:04.482Z,59.40
2018-02-21T08:43:31.983Z,59.67
2018-02-21T08:45:59.544Z,54.37
2018-02-21T08:48:27.344Z,61.30
2018-02-21T08:50:54.827Z,56.40
2018-02-21T08:53:22.420Z,54.33
2018-02-21T08:55:49.929Z,59.47
2018-02-21T08:58:17.560Z,56.27
2018-02-21T09:00:45.408Z,60.20
2018-02-21T09:03:13.516Z,58.23
2018-02-21T09:05:41.057Z,57.30
2018-02-21T09:08:08.736Z,55.30
2018-02-21T09:10:36.375Z,59.20
2018-02-21T09:13:04.217Z,59.40
2018-02-21T09:15:31.711Z,58.63
2018-02-21T09:17:59.236Z,61.10
2018-02-21T09:20:26.752Z,60.07
2018-02-21T09:22:54.283Z,61.33
2018-02-21T09:25:21.772Z,60.33
2018-02-21T09:27:49.294Z,56.20
2018-02-21T09:30:16.806Z,57.23
2018-02-21T09:32:44.360Z,58.00
2018-02-21T09:35:11.868Z,61.10
2018-02-21T09:37:39.429Z,55.13
2018-02-21T09:40:07.089Z,56.83
2018-02-21T09:42:34.618Z,58.30
2018-02-21T09:45:02.927Z,55.47
2018-02-21T09:47:31.322Z,54.60
2018-02-21T09:49:58.848Z,58.60
2018-02-21T09:52:27.134Z,59.20
2018-02-21T09:54:55.450Z,56.47
2018-02-21T09:57:23.115Z,55.50
2018-02-21T09:59:50.646Z,57.70
2018-02-21T10:02:18.144Z,55.47
2018-02-21T10:04:46.202Z,55.53
2018-02-21T10:07:13.751Z,58.40
2018-02-21T10:09:41.241Z,57.33
2018-02-21T10:12:08.792Z,56.47
2018-02-21T10:14:36.520Z,55.93
2018-02-21T10:17:04.056Z,60.57
2018-02-21T10:19:31.546Z,62.40
2018-02-21T10:21:59.122Z,58.47
2018-02-21T10:24:26.646Z,60.10
2018-02-21T10:26:54.143Z,60.23
2018-02-21T10:29:21.676Z,64.00
2018-02-21T10:31:49.324Z,64.10
2018-02-21T10:34:16.929Z,66.23
2018-02-21T10:36:44.464Z,60.77
2018-02-21T10:39:12.220Z,60.17
2018-02-21T10:41:39.726Z,64.47
2018-02-21T10:44:07.423Z,61.57
2018-02-21T10:46:34.923Z,66.00
2018-02-21T10:49:02.448Z,60.03
2018-02-21T10:51:29.950Z,60.40
2018-02-21T10:53:57.511Z,60.97
2018-02-21T10:56:25.016Z,60.80
2018-02-21T10:58:52.516Z,60.33
2018-02-21T11:01:27.506Z,59.50
2018-02-21T11:03:55.003Z,61.90
2018-02-21T11:06:22.605Z,66.03
2018-02-21T11:08:50.187Z,63.17
2018-02-21T11:11:18.454Z,61.80
2018-02-21T11:13:46.111Z,60.73
2018-02-21T11:16:14.005Z,65.73
2018-02-21T11:18:41.651Z,65.90
2018-02-21T11:21:09.150Z,68.20
2018-02-21T11:23:36.673Z,66.73
2018-02-21T11:26:04.143Z,65.87
2018-02-21T11:28:31.690Z,67.87
2018-02-21T11:30:59.194Z,67.23
2018-02-21T11:33:26.703Z,69.57
2018-02-21T11:35:54.272Z,72.68
2018-02-21T11:38:21.827Z,69.73
2018-02-21T11:52:02.678Z,73.53
2018-02-21T11:54:30.178Z,68.93
2018-02-21T11:56:57.687Z,69.77
2018-02-21T11:59:25.263Z,72.80
2018-02-21T12:01:53.003Z,69.87
2018-02-21T12:04:20.502Z,77.07
2018-02-21T12:06:48.020Z,72.53
2018-02-21T12:09:15.657Z,69.73
2018-02-21T12:11:43.188Z,69.00
2018-02-21T12:14:10.742Z,71.93
2018-02-21T12:16:38.266Z,73.70
2018-02-21T12:19:05.749Z,74.17
2018-02-21T12:21:33.299Z,72.70
2018-02-21T12:24:00.833Z,69.67
2018-02-21T12:26:28.373Z,72.53
2018-02-21T12:28:55.869Z,66.77
2018-02-21T12:31:23.408Z,77.33
2018-02-21T12:33:50.921Z,73.90
2018-02-21T12:36:19.191Z,62.97
2018-02-21T12:38:52.308Z,69.67
2018-02-21T12:41:25.347Z,67.77
2018-02-21T12:43:52.865Z,64.37
2018-02-21T12:46:20.463Z,62.40
2018-02-21T12:48:47.980Z,68.83
2018-02-21T12:51:15.466Z,67.73
2018-02-21T12:53:42.988Z,69.73
2018-02-21T12:56:10.504Z,72.67
2018-02-21T12:58:38.005Z,70.10
2018-02-21T13:01:05.534Z,67.10
2018-02-21T13:03:33.044Z,72.33
2018-02-21T13:06:00.579Z,68.83
2018-02-21T13:08:28.065Z,67.30
2018-02-21T13:10:55.577Z,70.40
2018-02-21T13:13:23.844Z,66.47
2018-02-21T13:15:51.345Z,73.63
2018-02-21T13:18:18.911Z,66.40
2018-02-21T13:20:46.435Z,69.20
2018-02-21T13:23:14.748Z,72.03
2018-02-21T13:25:42.589Z,77.30
2018-02-21T13:28:10.152Z,69.23
2018-02-21T14:04:12.617Z,68.57
2018-02-21T14:06:40.126Z,66.70
2018-02-21T14:09:07.731Z,67.93
2018-02-21T14:11:35.336Z,65.73
2018-02-21T14:14:02.880Z,65.43
2018-02-21T14:16:30.464Z,69.20
2018-02-21T14:18:57.981Z,67.23
2018-02-21T14:21:26.033Z,71.80
2018-02-21T14:23:54.343Z,71.47
2018-02-21T14:26:21.856Z,71.07
2018-02-21T14:28:49.462Z,63.27
2018-02-21T14:31:16.999Z,68.33
2018-02-21T14:33:44.507Z,63.30
2018-02-21T14:36:12.235Z,63.70
2018-02-21T14:38:39.794Z,61.57
2018-02-21T14:41:07.316Z,64.30
2018-02-21T14:43:34.823Z,58.80
2018-02-21T14:46:02.930Z,64.30
2018-02-21T14:48:30.433Z,62.87
2018-02-21T14:50:58.713Z,63.30
2018-02-21T14:53:26.302Z,60.33
2018-02-21T14:55:53.813Z,61.10
2018-02-21T14:58:22.095Z,58.60
2018-02-21T15:00:50.478Z,58.57
2018-02-21T15:03:17.980Z,60.23
2018-02-21T15:05:45.492Z,58.40
2018-02-21T15:08:13.062Z,57.17
2018-02-21T15:10:40.581Z,57.67
2018-02-21T15:13:09.742Z,60.33
2018-02-21T15:15:37.375Z,59.27
2018-02-21T15:18:04.935Z,51.23
2018-02-21T15:20:32.618Z,53.93
2018-02-21T15:23:00.137Z,57.63
2018-02-21T15:25:27.702Z,55.23
2018-02-21T15:27:55.234Z,57.63
2018-02-21T15:30:23.336Z,54.53
2018-02-21T15:32:50.992Z,51.50
2018-02-21T15:35:24.644Z,55.10
2018-02-21T15:37:52.183Z,54.80
2018-02-21T15:40:19.947Z,55.93
2018-02-21T15:42:47.467Z,66.33
2018-02-21T15:45:15.054Z,62.40
2018-02-21T15:47:43.305Z,53.83
2018-02-21T15:50:10.900Z,52.53
2018-02-21T15:52:38.423Z,52.90
2018-02-21T15:55:06.696Z,53.97
2018-02-21T15:57:34.195Z,55.00
2018-02-21T16:00:01.720Z,53.20
2018-02-21T16:02:29.232Z,54.57
2018-02-21T16:04:58.962Z,53.50
2018-02-21T16:07:27.307Z,54.07
2018-02-21T16:09:54.822Z,52.87
2018-02-21T16:12:22.356Z,55.87
2018-02-21T16:14:49.861Z,53.23
2018-02-21T16:17:17.377Z,51.20
2018-02-21T16:19:44.913Z,51.83
2018-02-21T16:22:12.409Z,60.47
2018-02-21T16:24:39.941Z,56.20
2018-02-21T16:27:08.668Z,75.33
2018-02-21T16:29:36.968Z,58.00
2018-02-21T16:32:05.405Z,60.40
2018-02-21T16:34:33.695Z,61.08
2018-02-21T16:37:01.197Z,59.40
2018-02-21T16:39:28.732Z,65.12
2018-02-21T16:41:56.235Z,64.28
2018-02-21T16:44:23.757Z,66.87
2018-02-21T16:46:51.326Z,69.18
2018-02-21T16:49:18.846Z,64.40
2018-02-21T16:51:46.365Z,67.33
2018-02-21T16:54:16.734Z,77.53
2018-02-21T16:56:44.294Z,78.43
2018-02-21T16:59:11.849Z,80.40
2018-02-21T17:01:39.370Z,88.30
2018-02-21T17:04:07.097Z,82.70
2018-02-21T17:06:34.622Z,87.15
2018-02-21T17:09:02.985Z,79.43
2018-02-21T17:11:31.247Z,86.12
2018-02-21T17:13:58.778Z,90.10
2018-02-21T17:16:26.303Z,87.68
2018-02-21T17:18:53.982Z,80.77
2018-02-21T17:21:21.510Z,86.18
2018-02-21T17:23:49.787Z,86.15
2018-02-21T17:26:18.134Z,84.47
2018-02-21T17:28:45.756Z,90.70
2018-02-21T17:31:13.287Z,93.07
2018-02-21T17:33:40.832Z,87.03
2018-02-21T17:36:09.115Z,92.57
2018-02-21T17:38:37.426Z,98.25
2018-02-21T17:41:10.572Z,100.87
2018-02-21T17:43:38.871Z,96.95
2018-02-21T17:46:06.378Z,93.90
2018-02-21T17:48:33.921Z,99.45
2018-02-21T17:51:01.457Z,98.15
2018-02-21T17:53:28.974Z,98.28
2018-02-21T17:55:56.688Z,88.15
2018-02-21T17:58:24.258Z,91.63
2018-02-21T18:00:51.808Z,97.95
2018-02-21T18:03:19.340Z,103.50
2018-02-21T18:05:46.853Z,103.68
2018-02-21T18:08:14.567Z,108.72
2018-02-21T18:10:42.143Z,101.97
2018-02-21T18:13:09.645Z,97.22
2018-02-21T18:15:37.174Z,112.18
2018-02-21T18:18:04.692Z,103.05
2018-02-21T18:20:32.575Z,100.20
2018-02-21T18:23:00.245Z,105.37
2018-02-21T18:25:27.812Z,100.57
2018-02-21T18:27:55.315Z,104.72
2018-02-21T18:30:22.923Z,100.62
2018-02-21T18:32:50.448Z,94.07
2018-02-21T18:35:18.709Z,97.53
2018-02-21T18:37:46.235Z,98.53
2018-02-21T18:40:13.744Z,100.00
2018-02-21T18:42:42.046Z,102.25
2018-02-21T18:45:09.554Z,85.10
2018-02-21T18:47:37.244Z,84.35
2018-02-21T18:50:05.580Z,81.20
2018-02-21T18:52:33.087Z,82.65
2018-02-21T18:55:00.587Z,82.18
2018-02-21T18:57:28.105Z,85.75
2018-02-21T18:59:55.684Z,74.70
2018-02-21T19:02:23.191Z,80.47
2018-02-21T19:04:50.713Z,67.87
2018-02-21T19:07:18.218Z,85.90
2018-02-21T19:09:46.509Z,71.97
2018-02-21T19:12:14.039Z,82.20
2018-02-21T19:14:41.550Z,89.80
2018-02-21T19:17:09.054Z,83.07
2018-02-21T19:19:37.362Z,85.47
2018-02-21T19:22:04.863Z,81.65
2018-02-21T19:24:32.388Z,89.78
2018-02-21T19:27:00.573Z,86.28
2018-02-21T19:29:28.207Z,80.55
2018-02-21T19:31:56.131Z,81.18
2018-02-21T19:34:23.650Z,77.78
2018-02-21T19:36:51.182Z,81.43
2018-02-21T19:39:19.326Z,88.57
2018-02-21T19:41:46.857Z,89.37
2018-02-21T19:44:15.308Z,89.30
2018-02-21T19:46:43.797Z,90.05
2018-02-21T19:49:11.338Z,83.40
2018-02-21T19:51:39.668Z,86.15
2018-02-21T19:54:07.170Z,86.35
2018-02-21T19:56:35.561Z,77.68
2018-02-21T19:59:03.858Z,75.20
2018-02-21T20:01:31.354Z,79.03
2018-02-21T20:04:01.583Z,71.68
2018-02-21T20:06:29.101Z,69.75
2018-02-21T20:08:56.661Z,68.65
2018-02-21T20:11:25.167Z,69.53
2018-02-21T20:13:52.714Z,70.32
2018-02-21T20:16:20.243Z,70.12
2018-02-21T20:18:47.772Z,77.22
2018-02-21T20:21:17.600Z,75.32
2018-02-21T20:23:45.138Z,81.20
2018-02-21T20:26:14.307Z,81.80
2018-02-21T20:28:43.759Z,78.15
2018-02-21T20:31:12.100Z,81.65
2018-02-21T20:33:39.667Z,80.47
2018-02-21T20:36:08.223Z,85.25
2018-02-21T20:38:36.173Z,83.37
2018-02-21T20:41:04.341Z,81.43
2018-02-21T20:43:31.900Z,82.75
2018-02-21T20:46:00.697Z,77.25
2018-02-21T20:48:28.220Z,77.57
2018-02-21T20:51:00.345Z,78.37
2018-02-21T20:53:27.920Z,75.95
2018-02-21T20:55:55.427Z,71.90
2018-02-21T20:58:23.792Z,78.05
2018-02-21T21:00:51.288Z,66.95
2018-02-21T21:03:19.781Z,70.07
2018-02-21T21:05:48.018Z,73.72
2018-02-21T21:08:15.576Z,68.45
2018-02-21T21:10:43.113Z,75.03
2018-02-21T21:13:11.576Z,78.25
2018-02-21T21:15:39.197Z,72.82
2018-02-21T21:18:06.728Z,75.05
2018-02-21T21:20:34.287Z,74.50
2018-02-21T21:23:02.559Z,74.35
2018-02-21T21:25:30.111Z,73.00
2018-02-21T21:27:57.692Z,80.85
2018-02-21T21:30:26.094Z,74.53
2018-02-21T21:32:53.610Z,74.03
2018-02-21T21:35:21.935Z,75.50
2018-02-21T21:37:49.777Z,74.65
2018-02-21T21:40:17.321Z,73.53
2018-02-21T21:42:44.846Z,69.00
2018-02-21T21:45:12.452Z,72.47
2018-02-21T21:47:40.091Z,65.97
2018-02-21T21:50:07.690Z,69.45
2018-02-21T21:52:35.196Z,67.60
2018-02-21T21:55:02.733Z,72.50
2018-02-21T21:57:30.223Z,64.57
2018-02-21T21:59:58.633Z,71.20
2018-02-21T22:02:26.160Z,69.40
2018-02-21T22:04:53.689Z,67.28
2018-02-21T22:07:21.203Z,62.92
2018-02-21T22:09:48.736Z,66.85
2018-02-21T22:12:17.042Z,66.65
2018-02-21T22:14:44.754Z,64.57
2018-02-21T22:17:12.255Z,70.87
2018-02-21T22:19:39.774Z,65.00
2018-02-21T22:22:08.036Z,70.97
2018-02-21T22:24:35.538Z,67.65
2018-02-21T22:27:03.043Z,66.93
2018-02-21T22:29:30.559Z,68.07
